createdAt,value
2023-01-17T00:02:24.893Z,94676.38
2023-01-17T00:05:09.913Z,94674.84
2023-01-17T00:07:55.028Z,94676.31
2023-01-17T00:10:25.384Z,94686.91
2023-01-17T00:12:52.510Z,94686.13
2023-01-17T00:15:20.000Z,94687.88
2023-01-17T00:17:46.719Z,94681.09
2023-01-17T00:20:32.246Z,94689.41
2023-01-17T00:23:17.401Z,94684.81
2023-01-17T00:26:02.196Z,94696.16
2023-01-17T00:28:28.517Z,94697.28
2023-01-17T00:30:54.838Z,94707.16
2023-01-17T00:33:21.315Z,94704.84
2023-01-17T00:35:47.634Z,94709.06
2023-01-17T00:38:14.777Z,94719.72
2023-01-17T00:40:41.462Z,94722.69
2023-01-17T00:43:26.775Z,94728.38
2023-01-17T00:46:12.026Z,94732.16
2023-01-17T00:48:57.081Z,94735.97
2023-01-17T00:51:42.076Z,94735.16
2023-01-17T00:54:27.324Z,94733.22
2023-01-17T00:57:12.394Z,94741.56
2023-01-17T00:59:57.633Z,94739.19
2023-01-17T01:02:42.805Z,94753.63
2023-01-17T01:05:28.016Z,94744.38
2023-01-17T01:08:12.689Z,94743.94
2023-01-17T01:10:57.627Z,94756.06
2023-01-17T01:13:43.013Z,94758.28
2023-01-17T01:16:27.961Z,94765.88
2023-01-17T01:19:12.933Z,94766.53
2023-01-17T01:21:57.994Z,94769.97
2023-01-17T01:24:42.802Z,94772.22
2023-01-17T01:27:27.576Z,94779.00
2023-01-17T01:30:12.481Z,94793.41
2023-01-17T01:32:57.364Z,94799.09
2023-01-17T01:35:23.782Z,94794.91
2023-01-17T01:37:50.119Z,94799.00
2023-01-17T01:40:16.518Z,94808.44
2023-01-17T01:42:50.058Z,94803.47
2023-01-17T01:45:17.371Z,94808.03
2023-01-17T01:47:43.691Z,94819.03
2023-01-17T01:50:10.320Z,94815.59
2023-01-17T01:52:36.869Z,94817.81
2023-01-17T01:55:05.121Z,94815.50
2023-01-17T01:57:32.275Z,94813.53
2023-01-17T01:59:59.481Z,94824.50
2023-01-17T02:02:26.308Z,94832.91
2023-01-17T02:04:52.663Z,94830.59
2023-01-17T02:07:20.941Z,94829.84
2023-01-17T02:09:47.279Z,94826.41
2023-01-17T02:12:13.635Z,94835.91
2023-01-17T02:14:39.994Z,94833.25
2023-01-17T02:17:10.525Z,94826.41
2023-01-17T02:19:45.978Z,94835.50
2023-01-17T02:22:12.230Z,94821.66
2023-01-17T02:24:57.052Z,94830.50
2023-01-17T02:27:26.439Z,94830.09
2023-01-17T02:30:11.559Z,94817.91
2023-01-17T02:32:46.936Z,94814.47
2023-01-17T02:35:21.175Z,94825.91
2023-01-17T02:37:52.824Z,94832.31
2023-01-17T02:40:20.624Z,94823.56
2023-01-17T02:42:48.191Z,94825.03
2023-01-17T02:45:15.180Z,94828.47
2023-01-17T02:47:41.493Z,94824.59
2023-01-17T02:50:08.995Z,94830.25
2023-01-17T02:52:35.234Z,94826.06
2023-01-17T02:55:07.472Z,94828.63
2023-01-17T02:57:33.715Z,94825.53
2023-01-17T03:00:02.101Z,94841.81
2023-01-17T03:02:31.423Z,94848.25
2023-01-17T03:05:03.303Z,94844.84
2023-01-17T03:07:29.615Z,94844.06
2023-01-17T03:09:59.399Z,94858.53
2023-01-17T03:12:29.282Z,94859.75
2023-01-17T03:14:55.594Z,94870.41
2023-01-17T03:17:22.466Z,94873.41
2023-01-17T03:19:49.017Z,94878.72
2023-01-17T03:22:15.327Z,94887.03
2023-01-17T03:24:41.637Z,94893.03
2023-01-17T03:27:07.972Z,94910.63
2023-01-17T03:29:34.367Z,94906.84
2023-01-17T03:32:00.669Z,94916.72
2023-01-17T03:34:26.994Z,94918.94
2023-01-17T03:36:53.321Z,94933.34
2023-01-17T03:39:19.746Z,94932.94
2023-01-17T03:41:46.074Z,94943.09
2023-01-17T03:44:12.421Z,94938.25
2023-01-17T03:46:38.738Z,94931.81
2023-01-17T03:49:05.766Z,94947.06
2023-01-17T03:51:32.092Z,94947.06
2023-01-17T03:53:58.421Z,94947.41
2023-01-17T03:56:24.815Z,94962.94
2023-01-17T03:58:51.600Z,94948.88
2023-01-17T04:01:19.203Z,94964.03
2023-01-17T04:03:45.785Z,94951.75
2023-01-17T04:06:12.110Z,94960.59
2023-01-17T04:08:38.423Z,94964.38
2023-01-17T04:11:04.912Z,94969.34
2023-01-17T04:13:31.488Z,94978.53
2023-01-17T04:15:57.877Z,94969.44
2023-01-17T04:18:24.943Z,94979.78
2023-01-17T04:20:51.536Z,94984.28
2023-01-17T04:23:17.890Z,94991.06
2023-01-17T04:25:44.212Z,94990.31
2023-01-17T04:28:10.518Z,94992.50
2023-01-17T04:30:37.001Z,94994.75
2023-01-17T04:33:03.398Z,94996.94
2023-01-17T04:35:30.212Z,95006.03
2023-01-17T04:37:56.529Z,95015.47
2023-01-17T04:40:22.917Z,95024.53
2023-01-17T04:42:49.255Z,95027.88
2023-01-17T04:45:15.700Z,95028.63
2023-01-17T04:47:42.030Z,95042.28
2023-01-17T04:50:08.751Z,95058.22
2023-01-17T04:52:35.067Z,95055.56
2023-01-17T04:55:01.399Z,95064.63
2023-01-17T04:57:27.733Z,95076.38
2023-01-17T04:59:54.091Z,95084.69
2023-01-17T05:02:20.476Z,95091.13
2023-01-17T05:04:46.939Z,95092.22
2023-01-17T05:07:13.325Z,95090.66
2023-01-17T05:09:39.776Z,95093.31
2023-01-17T05:12:06.101Z,95114.59
2023-01-17T05:14:34.248Z,95130.53
2023-01-17T05:17:00.953Z,95138.09
2023-01-17T05:19:27.362Z,95126.69
2023-01-17T05:21:53.743Z,95127.00
2023-01-17T05:24:20.051Z,95133.88
2023-01-17T05:26:54.416Z,95133.00
2023-01-17T05:29:20.884Z,95136.66
2023-01-17T05:31:47.472Z,95155.34
2023-01-17T05:34:13.835Z,95155.03
2023-01-17T05:36:40.176Z,95160.66
2023-01-17T05:39:06.499Z,95161.78
2023-01-17T05:41:32.821Z,95162.53
2023-01-17T05:43:59.158Z,95175.41
2023-01-17T05:46:25.601Z,95169.84
2023-01-17T05:48:51.924Z,95185.25
2023-01-17T05:51:18.275Z,95197.00
2023-01-17T05:53:44.587Z,95196.22
2023-01-17T05:56:10.908Z,95207.16
2023-01-17T05:58:37.295Z,95215.47
2023-01-17T06:01:03.658Z,95225.00
2023-01-17T06:03:30.003Z,95219.25
2023-01-17T06:05:56.331Z,95222.34
2023-01-17T06:08:23.426Z,95230.66
2023-01-17T06:10:49.834Z,95232.19
2023-01-17T06:13:20.754Z,95237.50
2023-01-17T06:15:47.091Z,95244.72
2023-01-17T06:18:14.638Z,95249.56
2023-01-17T06:20:40.985Z,95256.34
2023-01-17T06:23:08.138Z,95261.19
2023-01-17T06:25:38.117Z,95262.28
2023-01-17T06:28:04.926Z,95261.53
2023-01-17T06:30:31.266Z,95261.84
2023-01-17T06:32:57.584Z,95266.41
2023-01-17T06:35:23.900Z,95272.78
2023-01-17T06:37:50.896Z,95280.00
2023-01-17T06:40:17.445Z,95280.31
2023-01-17T06:42:43.774Z,95281.44
2023-01-17T06:45:10.283Z,95279.56
2023-01-17T06:47:40.076Z,95284.88
2023-01-17T06:50:07.078Z,95291.72
2023-01-17T06:52:33.651Z,95293.94
2023-01-17T06:54:59.991Z,95289.84
2023-01-17T06:57:26.335Z,95303.59
2023-01-17T06:59:52.639Z,95302.63
2023-01-17T07:02:18.976Z,95296.59
2023-01-17T07:04:45.285Z,95309.69
2023-01-17T07:07:11.663Z,95312.00
2023-01-17T07:09:38.303Z,95318.44
2023-01-17T07:12:04.633Z,95320.31
2023-01-17T07:14:30.943Z,95327.50
2023-01-17T07:16:57.262Z,95328.59
2023-01-17T07:19:23.832Z,95335.78
2023-01-17T07:21:50.722Z,95347.19
2023-01-17T07:24:17.037Z,95345.00
2023-01-17T07:26:43.676Z,95350.75
2023-01-17T07:29:09.992Z,95358.41
2023-01-17T07:31:38.351Z,95356.53
2023-01-17T07:34:05.015Z,95357.94
2023-01-17T07:36:31.671Z,95362.16
2023-01-17T07:38:57.974Z,95359.41
2023-01-17T07:41:24.296Z,95364.72
2023-01-17T07:43:50.611Z,95366.59
2023-01-17T07:46:17.014Z,95369.56
2023-01-17T07:48:43.360Z,95368.00
2023-01-17T07:51:09.736Z,95375.97
2023-01-17T07:53:36.075Z,95374.44
2023-01-17T07:56:02.974Z,95375.06
2023-01-17T07:58:29.293Z,95387.59
2023-01-17T08:01:00.552Z,95383.81
2023-01-17T08:03:32.099Z,95381.81
2023-01-17T08:05:58.460Z,95382.63
2023-01-17T08:08:24.809Z,95379.75
2023-01-17T08:10:51.575Z,95390.41
2023-01-17T08:13:17.917Z,95397.06
2023-01-17T08:15:44.234Z,95390.97
2023-01-17T08:18:10.576Z,95396.44
2023-01-17T08:20:36.917Z,95405.41
2023-01-17T08:23:03.307Z,95402.25
2023-01-17T08:25:29.627Z,95410.00
2023-01-17T08:27:56.840Z,95416.66
2023-01-17T08:30:23.728Z,95419.31
2023-01-17T08:32:50.125Z,95420.88
2023-01-17T08:35:16.442Z,95417.13
2023-01-17T08:37:42.825Z,95432.06
2023-01-17T08:40:10.617Z,95429.47
2023-01-17T08:42:39.301Z,95437.78
2023-01-17T08:45:06.056Z,95437.66
2023-01-17T08:47:32.963Z,95440.19
2023-01-17T08:50:00.268Z,95430.66
2023-01-17T08:52:27.129Z,95437.44
2023-01-17T08:54:56.487Z,95444.47
2023-01-17T08:57:22.852Z,95429.63
2023-01-17T08:59:49.203Z,95429.63
2023-01-17T09:02:15.829Z,95423.19
2023-01-17T09:04:48.293Z,95438.69
2023-01-17T09:07:14.875Z,95431.25
2023-01-17T09:09:41.202Z,95432.72
2023-01-17T09:12:07.735Z,95441.94
2023-01-17T09:14:34.391Z,95438.16
2023-01-17T09:17:00.730Z,95440.19
2023-01-17T09:19:27.048Z,95444.97
2023-01-17T09:21:53.389Z,95444.00
2023-01-17T09:24:19.694Z,95452.41
2023-01-17T09:26:46.110Z,95451.44
2023-01-17T09:29:13.973Z,95457.19
2023-01-17T09:31:41.577Z,95468.94
2023-01-17T09:34:08.481Z,95471.03
2023-01-17T09:36:34.876Z,95470.81
2023-01-17T09:39:01.445Z,95467.81
2023-01-17T09:41:31.632Z,95473.13
2023-01-17T09:44:01.884Z,95472.16
2023-01-17T09:46:32.400Z,95469.94
2023-01-17T09:49:08.898Z,95478.28
2023-01-17T09:51:35.364Z,95487.06
2023-01-17T09:54:02.473Z,95477.63
2023-01-17T09:56:30.337Z,95484.59
2023-01-17T09:58:56.569Z,95480.06
2023-01-17T10:01:25.981Z,95495.88
2023-01-17T10:03:57.339Z,95484.81
2023-01-17T10:06:26.674Z,95486.88
2023-01-17T10:09:09.210Z,95487.69
2023-01-17T10:11:38.698Z,95495.53
2023-01-17T10:14:10.804Z,95489.44
2023-01-17T10:16:37.165Z,95494.00
2023-01-17T10:19:07.746Z,95484.91
2023-01-17T10:21:39.566Z,95491.44
2023-01-17T10:24:06.506Z,95491.91
2023-01-17T10:26:33.135Z,95499.09
2023-01-17T10:29:00.183Z,95497.00
2023-01-17T10:31:27.245Z,95499.31
2023-01-17T10:33:54.911Z,95490.69
2023-01-17T10:36:24.235Z,95497.13
2023-01-17T10:38:54.374Z,95495.69
2023-01-17T10:41:30.593Z,95499.69
2023-01-17T10:44:15.418Z,95496.59
2023-01-17T10:46:43.364Z,95491.38
2023-01-17T10:49:14.063Z,95495.59
2023-01-17T10:51:43.651Z,95498.91
2023-01-17T10:54:26.191Z,95505.47
2023-01-17T10:56:52.763Z,95504.69
2023-01-17T10:59:28.796Z,95515.78
2023-01-17T11:01:55.157Z,95510.31
2023-01-17T11:04:22.630Z,95512.22
2023-01-17T11:07:08.898Z,95512.69
2023-01-17T11:09:38.930Z,95512.13
2023-01-17T11:12:05.423Z,95519.19
2023-01-17T11:14:35.827Z,95503.66
2023-01-17T11:17:02.572Z,95508.84
2023-01-17T11:19:30.387Z,95511.41
2023-01-17T11:22:01.656Z,95518.81
2023-01-17T11:24:30.266Z,95521.38
2023-01-17T11:26:57.049Z,95525.66
2023-01-17T11:29:31.489Z,95523.53
2023-01-17T11:31:57.801Z,95519.97
2023-01-17T11:34:24.990Z,95520.41
2023-01-17T11:37:30.140Z,95521.50
2023-01-17T11:40:06.497Z,95524.50
2023-01-17T11:42:33.758Z,95521.38
2023-01-17T11:45:18.976Z,95524.50
2023-01-17T11:47:45.353Z,95524.31
2023-01-17T11:50:24.322Z,95527.66
2023-01-17T11:52:50.739Z,95524.47
2023-01-17T11:55:17.060Z,95526.00
2023-01-17T11:57:43.405Z,95520.25
2023-01-17T12:00:24.290Z,95524.03
2023-01-17T12:03:09.471Z,95521.81
2023-01-17T12:05:40.673Z,95524.97
2023-01-17T12:08:13.077Z,95519.88
2023-01-17T12:10:45.970Z,95523.56
2023-01-17T12:13:49.768Z,95523.16
2023-01-17T12:16:34.709Z,95520.63
2023-01-17T12:19:21.599Z,95521.78
2023-01-17T12:22:17.148Z,95521.34
2023-01-17T12:25:02.631Z,95525.00
2023-01-17T12:27:31.905Z,95523.75
2023-01-17T12:29:58.779Z,95521.09
2023-01-17T12:32:28.713Z,95520.19
2023-01-17T12:35:00.660Z,95526.31
2023-01-17T12:37:29.480Z,95523.97
2023-01-17T12:40:00.360Z,95521.78
2023-01-17T12:42:28.168Z,95521.31
2023-01-17T12:44:57.942Z,95528.53
2023-01-17T12:47:24.485Z,95521.75
2023-01-17T12:49:56.694Z,95527.31
2023-01-17T12:52:26.183Z,95535.09
2023-01-17T12:54:54.790Z,95534.09
2023-01-17T12:57:22.368Z,95530.31
2023-01-17T13:00:04.265Z,95530.75
2023-01-17T13:02:39.882Z,95528.44
2023-01-17T13:05:09.235Z,95528.88
2023-01-17T13:07:49.551Z,95527.19
2023-01-17T13:10:20.928Z,95523.53
2023-01-17T13:12:47.260Z,95521.06
2023-01-17T13:15:14.246Z,95530.84
2023-01-17T13:17:46.705Z,95523.41
2023-01-17T13:20:31.793Z,95534.81
2023-01-17T13:23:00.857Z,95534.06
2023-01-17T13:25:31.794Z,95537.06
2023-01-17T13:28:10.643Z,95529.72
2023-01-17T13:30:55.969Z,95536.59
2023-01-17T13:33:34.301Z,95536.59
2023-01-17T13:36:19.324Z,95542.13
2023-01-17T13:39:00.969Z,95536.66
2023-01-17T13:41:47.319Z,95538.09
2023-01-17T13:44:23.029Z,95544.06
2023-01-17T13:46:56.327Z,95536.75
2023-01-17T13:49:34.724Z,95544.94
2023-01-17T13:52:12.212Z,95550.59
2023-01-17T13:54:45.693Z,95552.81
2023-01-17T13:57:29.746Z,95556.13
2023-01-17T13:59:56.757Z,95554.81
2023-01-17T14:02:32.266Z,95555.41
2023-01-17T14:05:23.871Z,95549.09
2023-01-17T14:07:52.954Z,95545.31
2023-01-17T14:10:22.278Z,95555.19
2023-01-17T14:12:48.925Z,95549.53
2023-01-17T14:15:19.863Z,95555.97
2023-01-17T14:17:48.132Z,95550.94
2023-01-17T14:20:16.048Z,95555.28
2023-01-17T14:22:47.416Z,95544.19
2023-01-17T14:25:17.589Z,95542.59
2023-01-17T14:27:51.205Z,95541.13
2023-01-17T14:30:17.750Z,95544.16
2023-01-17T14:33:01.427Z,95545.56
2023-01-17T14:35:28.201Z,95546.03
2023-01-17T14:37:54.524Z,95546.34
2023-01-17T14:40:26.366Z,95544.78
2023-01-17T14:42:59.849Z,95551.22
2023-01-17T14:45:27.526Z,95546.53
2023-01-17T14:47:53.921Z,95543.41
2023-01-17T14:50:24.304Z,95542.66
2023-01-17T14:53:27.885Z,95541.75
2023-01-17T14:55:56.415Z,95542.41
2023-01-17T14:58:32.785Z,95546.38
2023-01-17T15:00:59.963Z,95544.34
2023-01-17T15:03:26.768Z,95546.81
2023-01-17T15:05:53.414Z,95552.72
2023-01-17T15:08:20.472Z,95548.97
2023-01-17T15:10:48.484Z,95548.97
2023-01-17T15:13:14.874Z,95549.72
2023-01-17T15:15:42.163Z,95551.16
2023-01-17T15:18:08.404Z,95550.72
2023-01-17T15:20:34.736Z,95553.25
2023-01-17T15:23:01.055Z,95552.81
2023-01-17T15:25:27.382Z,95556.59
2023-01-17T15:27:53.708Z,95566.00
2023-01-17T15:30:22.221Z,95562.56
2023-01-17T15:32:49.216Z,95569.56
2023-01-17T15:35:18.548Z,95577.66
2023-01-17T15:37:44.869Z,95580.34
2023-01-17T15:40:16.768Z,95583.78
2023-01-17T15:42:43.137Z,95579.88
2023-01-17T15:45:15.464Z,95580.34
2023-01-17T15:47:41.792Z,95595.97
2023-01-17T15:50:20.399Z,95587.41
2023-01-17T15:52:49.077Z,95594.28
2023-01-17T15:55:22.406Z,95601.16
2023-01-17T15:57:48.800Z,95591.19
2023-01-17T16:00:21.452Z,95596.81
2023-01-17T16:02:58.681Z,95586.16
2023-01-17T16:05:25.695Z,95582.28
2023-01-17T16:07:55.461Z,95585.59
2023-01-17T16:10:22.585Z,95586.84
2023-01-17T16:12:50.009Z,95585.94
2023-01-17T16:15:18.283Z,95583.00
2023-01-17T16:17:45.779Z,95590.59
2023-01-17T16:20:15.756Z,95585.72
2023-01-17T16:22:43.632Z,95591.19
2023-01-17T16:25:19.515Z,95586.09
2023-01-17T16:27:45.909Z,95594.09
2023-01-17T16:30:15.236Z,95595.97
2023-01-17T16:32:42.398Z,95603.94
2023-01-17T16:35:29.276Z,95603.03
2023-01-17T16:37:56.207Z,95610.38
2023-01-17T16:40:23.797Z,95614.94
2023-01-17T16:42:50.141Z,95616.00
2023-01-17T16:45:16.510Z,95622.13
2023-01-17T16:47:43.079Z,95623.63
2023-01-17T16:50:10.063Z,95613.75
2023-01-17T16:52:36.369Z,95620.63
2023-01-17T16:55:03.198Z,95614.84
2023-01-17T16:57:29.520Z,95615.16
2023-01-17T16:59:55.834Z,95626.38
2023-01-17T17:02:22.953Z,95623.94
2023-01-17T17:04:49.393Z,95631.13
2023-01-17T17:07:15.700Z,95631.47
2023-01-17T17:09:42.053Z,95627.25
2023-01-17T17:12:08.418Z,95630.22
2023-01-17T17:14:34.740Z,95639.66
2023-01-17T17:17:01.107Z,95634.53
2023-01-17T17:19:30.153Z,95630.63
2023-01-17T17:21:59.699Z,95627.84
2023-01-17T17:24:26.043Z,95617.66
2023-01-17T17:26:52.432Z,95623.44
2023-01-17T17:29:18.827Z,95624.47
2023-01-17T17:31:45.163Z,95620.16
2023-01-17T17:34:12.401Z,95616.66
2023-01-17T17:36:38.819Z,95615.34
2023-01-17T17:39:06.447Z,95613.16
2023-01-17T17:41:33.357Z,95611.59
2023-01-17T17:44:00.216Z,95615.81
2023-01-17T17:46:27.266Z,95616.94
2023-01-17T17:48:53.659Z,95612.38
2023-01-17T17:51:30.087Z,95617.72
2023-01-17T17:53:57.917Z,95619.91
2023-01-17T17:56:24.236Z,95631.72
2023-01-17T17:58:50.567Z,95633.44
2023-01-17T18:01:16.989Z,95631.94
2023-01-17T18:03:43.340Z,95638.94
2023-01-17T18:06:10.235Z,95633.56
2023-01-17T18:08:37.197Z,95637.13
2023-01-17T18:11:04.637Z,95643.97
2023-01-17T18:13:31.320Z,95655.44
2023-01-17T18:16:01.642Z,95653.09
2023-01-17T18:18:28.055Z,95660.88
2023-01-17T18:20:54.398Z,95669.28
2023-01-17T18:23:20.835Z,95668.63
2023-01-17T18:25:47.164Z,95671.41
2023-01-17T18:28:13.553Z,95683.28
2023-01-17T18:30:39.889Z,95684.97
2023-01-17T18:33:06.221Z,95677.53
2023-01-17T18:35:32.545Z,95682.88
2023-01-17T18:37:58.924Z,95674.19
2023-01-17T18:40:25.256Z,95677.31
2023-01-17T18:42:51.632Z,95673.50
2023-01-17T18:45:18.057Z,95674.97
2023-01-17T18:47:44.368Z,95673.75
2023-01-17T18:50:10.706Z,95676.19
2023-01-17T18:52:38.594Z,95671.97
2023-01-17T18:55:05.045Z,95678.59
2023-01-17T18:57:31.521Z,95677.09
2023-01-17T18:59:57.860Z,95684.19
2023-01-17T19:02:24.188Z,95676.38
2023-01-17T19:04:50.513Z,95683.50
2023-01-17T19:07:16.847Z,95682.16
2023-01-17T19:09:44.101Z,95685.66
2023-01-17T19:12:10.419Z,95690.41
2023-01-17T19:14:36.735Z,95687.31
2023-01-17T19:17:03.104Z,95684.84
2023-01-17T19:19:29.431Z,95691.84
2023-01-17T19:21:55.738Z,95696.50
2023-01-17T19:24:22.133Z,95693.84
2023-01-17T19:26:51.097Z,95711.09
2023-01-17T19:29:17.408Z,95706.97
2023-01-17T19:31:43.952Z,95721.25
2023-01-17T19:34:10.481Z,95722.69
2023-01-17T19:36:37.362Z,95723.13
2023-01-17T19:39:05.959Z,95718.44
2023-01-17T19:41:36.342Z,95724.22
2023-01-17T19:44:04.403Z,95733.34
2023-01-17T19:46:31.107Z,95729.78
2023-01-17T19:48:57.522Z,95732.91
2023-01-17T19:51:24.232Z,95738.03
2023-01-17T19:53:50.578Z,95732.22
2023-01-17T19:56:18.135Z,95734.47
2023-01-17T19:58:44.842Z,95736.69
2023-01-17T20:01:14.933Z,95737.13
2023-01-17T20:03:42.482Z,95737.66
2023-01-17T20:06:08.832Z,95746.78
2023-01-17T20:08:35.191Z,95744.78
2023-01-17T20:11:02.331Z,95739.53
2023-01-17T20:13:28.679Z,95744.38
2023-01-17T20:15:55.018Z,95741.78
2023-01-17T20:18:22.447Z,95744.88
2023-01-17T20:20:57.138Z,95747.69
2023-01-17T20:23:23.901Z,95749.44
2023-01-17T20:25:58.886Z,95751.34
2023-01-17T20:28:26.668Z,95748.22
2023-01-17T20:30:53.674Z,95749.66
2023-01-17T20:33:20.400Z,95750.00
2023-01-17T20:35:46.752Z,95760.69
2023-01-17T20:38:13.071Z,95757.56
2023-01-17T20:40:39.395Z,95755.22
2023-01-17T20:43:06.146Z,95757.78
2023-01-17T20:45:32.585Z,95758.47
2023-01-17T20:47:59.221Z,95768.44
2023-01-17T20:50:25.715Z,95775.25
2023-01-17T20:52:52.168Z,95765.78
2023-01-17T20:55:18.511Z,95770.69
2023-01-17T20:57:45.070Z,95768.13
2023-01-17T21:00:12.203Z,95770.47
2023-01-17T21:02:38.601Z,95767.78
2023-01-17T21:05:05.257Z,95770.53
2023-01-17T21:07:31.573Z,95770.63
2023-01-17T21:09:57.888Z,95769.16
2023-01-17T21:12:24.227Z,95773.06
2023-01-17T21:14:51.055Z,95771.69
2023-01-17T21:17:17.428Z,95764.47
2023-01-17T21:19:43.990Z,95771.03
2023-01-17T21:22:11.143Z,95765.34
2023-01-17T21:24:37.458Z,95767.34
2023-01-17T21:27:03.779Z,95771.56
2023-01-17T21:29:31.493Z,95766.56
2023-01-17T21:31:57.869Z,95766.06
2023-01-17T21:34:25.510Z,95769.00
2023-01-17T21:36:51.969Z,95766.97
2023-01-17T21:39:18.374Z,95764.81
2023-01-17T21:41:45.708Z,95770.69
2023-01-17T21:44:12.837Z,95778.59
2023-01-17T21:46:39.473Z,95778.94
2023-01-17T21:49:06.034Z,95782.75
2023-01-17T21:51:51.104Z,95780.06
2023-01-17T21:54:17.419Z,95789.22
2023-01-17T21:57:02.492Z,95802.59
2023-01-17T21:59:30.606Z,95802.59
2023-01-17T22:01:58.146Z,95803.69
2023-01-17T22:04:25.674Z,95804.81
2023-01-17T22:06:52.022Z,95809.13
2023-01-17T22:09:18.355Z,95806.34
2023-01-17T22:11:44.712Z,95812.56
2023-01-17T22:14:11.143Z,95810.25
2023-01-17T22:16:37.496Z,95808.75
2023-01-17T22:19:04.302Z,95817.88
2023-01-17T22:21:30.653Z,95828.94
2023-01-17T22:23:57.646Z,95830.81
2023-01-17T22:26:24.636Z,95833.16
2023-01-17T22:28:50.946Z,95828.59
2023-01-17T22:31:24.270Z,95826.56
2023-01-17T22:33:57.316Z,95834.59
2023-01-17T22:36:23.664Z,95834.59
2023-01-17T22:38:50.061Z,95830.47
2023-01-17T22:41:17.481Z,95849.19
2023-01-17T22:43:44.587Z,95840.72
2023-01-17T22:46:11.728Z,95838.38
2023-01-17T22:48:38.150Z,95842.97
2023-01-17T22:51:04.785Z,95843.09
2023-01-17T22:53:31.098Z,95837.34
2023-01-17T22:56:01.370Z,95839.13
2023-01-17T22:58:28.704Z,95835.47
2023-01-17T23:01:07.936Z,95845.56
2023-01-17T23:03:34.385Z,95844.69
2023-01-17T23:06:30.376Z,95843.44
2023-01-17T23:08:57.678Z,95844.91
2023-01-17T23:11:40.449Z,95850.41
2023-01-17T23:14:07.437Z,95844.53
2023-01-17T23:16:52.728Z,95848.19
2023-01-17T23:19:24.889Z,95845.72
2023-01-17T23:22:10.483Z,95850.16
2023-01-17T23:24:39.435Z,95850.81
2023-01-17T23:27:24.269Z,95854.47
2023-01-17T23:32:16.792Z,95851.56
2023-01-17T23:34:43.328Z,95857.56
2023-01-17T23:37:09.660Z,95845.97
2023-01-17T23:39:35.980Z,95847.09
2023-01-17T23:42:21.199Z,95846.97
2023-01-17T23:44:47.550Z,95847.31
2023-01-17T23:47:13.879Z,95847.94
2023-01-17T23:49:40.189Z,95848.28
2023-01-17T23:52:06.609Z,95838.28
2023-01-17T23:54:34.993Z,95836.25
2023-01-17T23:57:01.829Z,95835.03
2023-01-17T23:59:28.741Z,95821.44
